Time;durP1;ratioP1;P1;durP2;ratioP2;P2;SDS_P1;SDS_P2;PMS_P1;PMS_P2;Temp;Humidity;BMP_temperature;BMP_pressure;BME280_temperature;BME280_humidity;BME280_pressure;Samples;Min_cycle;Max_cycle;Signal;HPM_P1;HPM_P2
2021/08/02 00:00:21;;;;;;;8.77;3.23;;;;;;;15.11;100.00;100264.50;4958983;28;20183;-78
2021/08/02 00:02:50;;;;;;;6.90;3.42;;;;;;;15.09;100.00;100272.22;4934614;29;20180;-78
2021/08/02 00:05:17;;;;;;;5.15;3.33;;;;;;;15.17;100.00;100271.50;4938854;29;20184;-78
2021/08/02 00:07:45;;;;;;;5.13;3.03;;;;;;;15.11;100.00;100271.91;4948650;29;20286;-78
2021/08/02 00:10:12;;;;;;;9.13;4.00;;;;;;;15.10;100.00;100270.28;4941060;28;20667;-77
2021/08/02 00:12:47;;;;;;;4.60;2.90;;;;;;;15.06;100.00;100275.56;4919897;29;20212;-78
2021/08/02 00:15:16;;;;;;;6.85;3.30;;;;;;;14.88;100.00;100264.00;4939369;29;20196;-79
2021/08/02 00:17:42;;;;;;;8.73;3.33;;;;;;;14.91;100.00;100266.09;4926867;29;20203;-78
2021/08/02 00:20:14;;;;;;;7.40;3.03;;;;;;;14.91;100.00;100264.19;4939041;28;20187;-77
2021/08/02 00:22:42;;;;;;;4.63;3.33;;;;;;;14.88;100.00;100273.00;4948521;29;20187;-77
2021/08/02 00:25:13;;;;;;;8.43;3.60;;;;;;;14.80;100.00;100281.97;4935549;28;20765;-78
2021/08/02 00:27:41;;;;;;;5.80;2.83;;;;;;;14.89;100.00;100279.28;4925885;29;20573;-77
2021/08/02 00:30:12;;;;;;;4.43;2.93;;;;;;;14.76;100.00;100271.94;4923345;28;20183;-77
2021/08/02 00:32:40;;;;;;;9.63;3.20;;;;;;;14.76;100.00;100278.22;4934429;29;20295;-77
2021/08/02 00:35:08;;;;;;;7.03;3.07;;;;;;;14.68;100.00;100280.88;4936648;29;20188;-79
2021/08/02 00:37:51;;;;;;;6.20;3.17;;;;;;;14.66;100.00;100280.38;4945163;29;20210;-79
2021/08/02 00:40:48;;;;;;;7.73;3.17;;;;;;;14.70;100.00;100284.09;4938407;28;20237;-80
2021/08/02 00:43:52;;;;;;;5.10;2.90;;;;;;;14.56;100.00;100283.34;4960380;28;20203;-79
2021/08/02 00:46:22;;;;;;;7.83;3.40;;;;;;;14.50;100.00;100284.56;4948065;29;20258;-79
2021/08/02 00:48:55;;;;;;;6.07;3.27;;;;;;;14.51;100.00;100286.19;4943516;29;20859;-79
2021/08/02 00:51:23;;;;;;;4.23;3.40;;;;;;;14.52;100.00;100293.25;4919558;29;20245;-79
2021/08/02 00:53:49;;;;;;;7.63;2.90;;;;;;;14.46;100.00;100283.56;4925070;29;20250;-79
2021/08/02 00:56:18;;;;;;;5.27;3.30;;;;;;;14.55;100.00;100278.97;4929676;29;20231;-79
2021/08/02 00:58:47;;;;;;;9.67;3.63;;;;;;;14.44;100.00;100288.53;4957075;29;20210;-80
2021/08/02 01:01:16;;;;;;;7.67;3.23;;;;;;;14.42;100.00;100284.47;4932149;29;20223;-80
2021/08/02 01:03:42;;;;;;;5.57;3.37;;;;;;;14.31;100.00;100280.34;4954858;29;20235;-79
2021/08/02 01:06:09;;;;;;;5.30;3.10;;;;;;;14.37;100.00;100279.91;4942620;29;20227;-80
2021/08/02 01:08:39;;;;;;;7.47;3.20;;;;;;;14.32;100.00;100284.69;4950589;29;20215;-81
2021/08/02 01:11:12;;;;;;;6.63;3.37;;;;;;;14.24;100.00;100283.47;4945875;29;20596;-81
2021/08/02 01:13:42;;;;;;;5.13;3.30;;;;;;;14.22;100.00;100286.84;4940168;29;20211;-80
2021/08/02 01:16:08;;;;;;;7.23;3.40;;;;;;;14.26;100.00;100294.09;4942182;29;20255;-81
2021/08/02 01:18:36;;;;;;;7.10;3.50;;;;;;;14.33;100.00;100284.38;4942473;29;20210;-80
2021/08/02 01:21:14;;;;;;;10.40;3.80;;;;;;;14.16;100.00;100280.66;4927352;29;20234;-80
2021/08/02 01:23:43;;;;;;;4.73;3.53;;;;;;;14.19;100.00;100293.69;4936020;29;20206;-81
2021/08/02 01:26:44;;;;;;;6.27;3.37;;;;;;;14.22;100.00;100289.56;4944808;28;20220;-81
2021/08/02 01:29:52;;;;;;;4.23;3.33;;;;;;;14.12;100.00;100297.94;4953230;29;20281;-80
2021/08/02 01:32:26;;;;;;;5.70;3.33;;;;;;;14.11;100.00;100288.16;4961718;29;20459;-78
2021/08/02 01:35:01;;;;;;;4.83;3.33;;;;;;;14.01;100.00;100296.50;4946018;29;20180;-81
2021/08/02 01:37:28;;;;;;;7.27;3.53;;;;;;;14.09;100.00;100293.13;4925593;29;20290;-80
2021/08/02 01:39:57;;;;;;;7.77;3.53;;;;;;;14.05;100.00;100298.38;4939782;29;20186;-81
2021/08/02 01:42:31;;;;;;;7.90;3.33;;;;;;;13.98;100.00;100291.66;4916416;29;20234;-81
2021/08/02 01:44:58;;;;;;;6.90;2.90;;;;;;;13.98;100.00;100297.94;4929658;29;20191;-80
2021/08/02 01:48:14;;;;;;;7.13;3.43;;;;;;;13.95;100.00;100303.97;4928927;29;20234;-80
2021/08/02 01:50:49;;;;;;;6.83;3.13;;;;;;;13.92;100.00;100312.00;4917775;29;20714;-80
2021/08/02 01:53:28;;;;;;;6.03;3.30;;;;;;;13.89;100.00;100315.31;4928237;29;20705;-79
2021/08/02 01:56:17;;;;;;;6.37;3.47;;;;;;;13.80;100.00;100306.19;4942870;29;20227;-80
2021/08/02 01:59:05;;;;;;;6.37;3.07;;;;;;;13.78;100.00;100302.97;4932625;29;20241;-80
2021/08/02 02:01:44;;;;;;;5.87;2.80;;;;;;;13.76;100.00;100299.72;4964484;29;20226;-80
2021/08/02 02:04:13;;;;;;;8.43;3.03;;;;;;;13.65;100.00;100292.84;4927465;29;20191;-81
2021/08/02 02:06:45;;;;;;;4.07;2.90;;;;;;;13.55;100.00;100295.75;4948004;29;20242;-81
2021/08/02 02:09:14;;;;;;;9.03;2.80;;;;;;;13.50;100.00;100304.03;4922069;29;20175;-80
2021/08/02 02:11:48;;;;;;;7.77;2.73;;;;;;;13.59;100.00;100299.50;4969244;29;20226;-81
2021/08/02 02:14:36;;;;;;;4.07;2.77;;;;;;;13.55;100.00;100309.41;4932680;29;20184;-80
2021/08/02 02:17:10;;;;;;;5.03;2.83;;;;;;;13.50;100.00;100314.94;4911257;29;20468;-81
2021/08/02 02:19:41;;;;;;;7.67;2.63;;;;;;;13.53;100.00;100311.63;4913804;29;20190;-79
2021/08/02 02:22:12;;;;;;;5.77;2.80;;;;;;;13.49;100.00;100313.31;4956900;28;20226;-79
2021/08/02 02:24:41;;;;;;;4.47;2.50;;;;;;;13.47;100.00;100317.47;4920156;29;20179;-80
2021/08/02 02:27:11;;;;;;;5.70;2.77;;;;;;;13.48;100.00;100330.81;4937788;29;20239;-82
2021/08/02 02:29:44;;;;;;;7.47;2.97;;;;;;;13.40;100.00;100321.69;4930013;29;20194;-79
2021/08/02 02:32:15;;;;;;;7.90;2.90;;;;;;;13.45;100.00;100323.22;4958372;29;20215;-80
2021/08/02 02:34:43;;;;;;;7.43;2.90;;;;;;;13.40;100.00;100319.75;4954262;29;20242;-79
2021/08/02 02:37:11;;;;;;;6.10;2.80;;;;;;;13.44;100.00;100328.97;4923696;29;20238;-81
2021/08/02 02:39:40;;;;;;;9.67;3.27;;;;;;;13.48;100.00;100330.00;4928801;29;20281;-80
2021/08/02 02:42:09;;;;;;;9.57;3.53;;;;;;;13.35;100.00;100319.03;4927299;29;20222;-79
2021/08/02 02:44:36;;;;;;;4.53;2.83;;;;;;;13.36;100.00;100326.13;4924401;29;20183;-80
2021/08/02 02:47:02;;;;;;;5.80;2.83;;;;;;;13.36;100.00;100324.19;4940958;29;20232;-80
2021/08/02 02:49:28;;;;;;;5.43;2.87;;;;;;;13.26;100.00;100326.25;4942441;29;20202;-81
2021/08/02 02:51:56;;;;;;;6.70;3.10;;;;;;;13.30;100.00;100328.13;4944472;29;20235;-80
2021/08/02 02:54:24;;;;;;;5.73;2.80;;;;;;;13.30;100.00;100332.78;4928810;29;20207;-82
2021/08/02 02:56:52;;;;;;;6.10;2.90;;;;;;;13.31;100.00;100324.25;4922668;29;20689;-80
2021/08/02 02:59:24;;;;;;;4.53;2.87;;;;;;;13.37;100.00;100336.75;4906519;29;20180;-81
2021/08/02 03:01:53;;;;;;;8.17;3.10;;;;;;;13.36;100.00;100335.09;4917471;29;20228;-80
2021/08/02 03:04:24;;;;;;;8.17;3.17;;;;;;;13.28;100.00;100340.44;4920093;29;20182;-80
2021/08/02 03:06:54;;;;;;;7.10;2.90;;;;;;;13.20;100.00;100347.34;4938277;29;20227;-78
2021/08/02 03:09:21;;;;;;;6.07;2.97;;;;;;;13.19;100.00;100353.13;4956597;29;20236;-80
2021/08/02 03:11:51;;;;;;;5.13;2.80;;;;;;;13.16;100.00;100353.72;4906810;29;20224;-79
2021/08/02 03:14:19;;;;;;;7.87;3.10;;;;;;;13.15;100.00;100354.84;4921886;29;20603;-79
2021/08/02 03:16:45;;;;;;;5.33;2.80;;;;;;;13.13;100.00;100362.47;4921203;29;20230;-79
2021/08/02 03:19:13;;;;;;;7.87;3.20;;;;;;;13.22;100.00;100356.09;4940615;29;20198;-80
2021/08/02 03:21:41;;;;;;;5.30;2.90;;;;;;;13.13;100.00;100357.03;4933472;29;20234;-81
2021/08/02 03:24:18;;;;;;;7.87;3.27;;;;;;;13.34;100.00;100367.34;4940485;29;20756;-80
2021/08/02 03:26:45;;;;;;;4.90;3.00;;;;;;;13.39;100.00;100363.69;4939117;28;20325;-80
2021/08/02 03:29:26;;;;;;;10.07;2.93;;;;;;;13.35;100.00;100354.50;4939767;29;20199;-81
2021/08/02 03:31:58;;;;;;;8.20;2.73;;;;;;;13.38;100.00;100356.63;4955713;29;20218;-80
2021/08/02 03:34:30;;;;;;;8.10;3.00;;;;;;;13.43;100.00;100353.84;4955333;29;20215;-81
2021/08/02 03:36:59;;;;;;;7.07;2.63;;;;;;;13.38;100.00;100346.53;4914935;29;20266;-80
2021/08/02 03:39:28;;;;;;;6.07;3.07;;;;;;;13.39;100.00;100352.78;4920348;29;20556;-81
2021/08/02 03:41:56;;;;;;;4.73;2.90;;;;;;;13.37;100.00;100344.94;4940896;29;20219;-80
2021/08/02 03:44:22;;;;;;;3.13;2.57;;;;;;;13.44;100.00;100358.16;4920945;29;20574;-81
2021/08/02 03:46:52;;;;;;;12.13;3.90;;;;;;;13.48;100.00;100358.09;4948114;29;20249;-82
2021/08/02 03:49:21;;;;;;;5.73;2.73;;;;;;;13.44;100.00;100356.25;4954610;28;20189;-81
2021/08/02 03:51:57;;;;;;;5.67;2.70;;;;;;;13.29;100.00;100374.78;4927759;29;20303;-82
2021/08/02 03:54:24;;;;;;;6.33;2.73;;;;;;;13.40;100.00;100371.59;4937402;29;20626;-82
2021/08/02 03:56:50;;;;;;;6.03;2.73;;;;;;;13.35;100.00;100370.88;4936102;29;20838;-80
2021/08/02 03:59:20;;;;;;;5.13;2.50;;;;;;;13.33;100.00;100379.38;4921111;29;20267;-80
2021/08/02 04:01:47;;;;;;;6.90;2.73;;;;;;;13.45;100.00;100372.31;4904994;29;20231;-79
2021/08/02 04:04:13;;;;;;;7.53;2.80;;;;;;;13.45;100.00;100378.91;4936595;29;20187;-79
2021/08/02 04:06:43;;;;;;;7.63;2.80;;;;;;;13.50;100.00;100377.72;4937901;29;20224;-80
2021/08/02 04:09:10;;;;;;;7.53;2.80;;;;;;;13.52;100.00;100380.94;4917179;29;20211;-80
2021/08/02 04:11:36;;;;;;;8.10;3.70;;;;;;;13.60;100.00;100388.44;4940940;29;20219;-80
2021/08/02 04:14:02;;;;;;;4.50;2.53;;;;;;;13.55;100.00;100391.28;4947969;29;20200;-81
2021/08/02 04:16:30;;;;;;;3.80;2.77;;;;;;;13.58;100.00;100381.69;4922325;29;20232;-81
2021/08/02 04:18:55;;;;;;;5.63;2.60;;;;;;;13.51;100.00;100379.31;4919822;29;20232;-80
2021/08/02 04:21:21;;;;;;;5.60;2.77;;;;;;;13.63;100.00;100387.84;4928917;29;20226;-80
2021/08/02 04:23:51;;;;;;;5.00;2.57;;;;;;;13.61;100.00;100390.09;4957815;29;20183;-80
2021/08/02 04:26:20;;;;;;;7.23;2.90;;;;;;;13.65;100.00;100391.09;4957645;28;20250;-81
2021/08/02 04:28:55;;;;;;;5.83;2.83;;;;;;;13.74;100.00;100394.78;4957478;29;20697;-81
2021/08/02 04:31:21;;;;;;;6.23;3.00;;;;;;;13.72;100.00;100397.00;4954980;28;20231;-82
2021/08/02 04:33:46;;;;;;;4.53;2.77;;;;;;;13.79;100.00;100396.59;4923972;29;20207;-79
2021/08/02 04:36:14;;;;;;;5.80;2.90;;;;;;;13.90;100.00;100385.22;4924466;29;20220;-80
2021/08/02 04:38:40;;;;;;;4.90;2.90;;;;;;;13.82;100.00;100399.53;4957910;29;20207;-79
2021/08/02 04:41:09;;;;;;;7.17;3.07;;;;;;;14.13;100.00;100396.00;4927544;29;20704;-80
2021/08/02 04:43:37;;;;;;;3.97;2.80;;;;;;;14.18;100.00;100395.09;4940091;29;20194;-80
2021/08/02 04:46:05;;;;;;;6.77;3.10;;;;;;;14.07;100.00;100401.88;4909597;29;20290;-81
2021/08/02 04:48:31;;;;;;;9.00;2.80;;;;;;;14.17;100.00;100410.66;4906170;29;20212;-80
2021/08/02 04:50:59;;;;;;;6.37;2.73;;;;;;;14.23;100.00;100401.28;4907198;29;20215;-80
2021/08/02 04:53:31;;;;;;;5.37;3.03;;;;;;;14.20;100.00;100403.81;4922816;29;20219;-80
2021/08/02 04:55:56;;;;;;;5.83;3.20;;;;;;;14.32;100.00;100404.91;4939172;28;20582;-81
2021/08/02 04:58:24;;;;;;;5.17;2.80;;;;;;;14.35;100.00;100402.38;4919623;29;20271;-79
2021/08/02 05:00:52;;;;;;;41.80;33.90;;;;;;;14.26;100.00;100404.19;4920280;29;20298;-75
2021/08/02 05:03:23;;;;;;;15.07;9.57;;;;;;;14.34;100.00;100405.41;4908011;29;20187;-78
2021/08/02 05:05:54;;;;;;;6.73;3.17;;;;;;;14.35;100.00;100407.03;4922427;29;20235;-79
2021/08/02 05:08:22;;;;;;;3.80;2.60;;;;;;;14.45;100.00;100402.22;4935158;29;20632;-80
2021/08/02 05:10:50;;;;;;;5.67;2.83;;;;;;;14.50;100.00;100402.09;4937135;29;20239;-79
2021/08/02 05:13:16;;;;;;;6.83;2.80;;;;;;;14.59;100.00;100394.78;4925980;29;20613;-79
2021/08/02 05:15:47;;;;;;;7.13;2.90;;;;;;;14.53;100.00;100397.94;4921278;28;20227;-80
2021/08/02 05:18:14;;;;;;;8.00;2.90;;;;;;;14.54;100.00;100394.91;4951454;29;20211;-80
2021/08/02 05:20:42;;;;;;;9.03;2.70;;;;;;;14.67;100.00;100399.56;4956387;28;20233;-81
2021/08/02 05:23:11;;;;;;;10.60;2.50;;;;;;;14.71;100.00;100393.16;4959627;29;20191;-79
2021/08/02 05:25:39;;;;;;;3.53;2.43;;;;;;;14.70;100.00;100404.41;4961379;29;20231;-78
2021/08/02 05:28:05;;;;;;;6.17;2.73;;;;;;;14.94;100.00;100407.72;4972616;28;20219;-78
2021/08/02 05:30:35;;;;;;;4.20;2.63;;;;;;;14.95;100.00;100406.63;4921504;29;20219;-78
2021/08/02 05:33:05;;;;;;;6.10;3.00;;;;;;;15.06;100.00;100412.38;4938855;29;20219;-78
2021/08/02 05:35:33;;;;;;;5.90;2.30;;;;;;;14.86;100.00;100406.53;4920623;28;20287;-79
2021/08/02 05:38:01;;;;;;;6.13;2.67;;;;;;;15.02;100.00;100408.63;4914417;29;20198;-77
2021/08/02 05:40:32;;;;;;;6.80;2.47;;;;;;;14.68;100.00;100412.91;4953062;29;20223;-78
2021/08/02 05:42:57;;;;;;;10.13;2.50;;;;;;;14.75;100.00;100409.78;4926934;29;20187;-73
2021/08/02 05:45:25;;;;;;;3.23;2.40;;;;;;;14.75;100.00;100413.31;4934963;28;20186;-78
2021/08/02 05:47:52;;;;;;;6.07;2.40;;;;;;;15.02;100.00;100411.38;4935471;29;20281;-78
2021/08/02 05:50:18;;;;;;;8.03;2.70;;;;;;;14.76;100.00;100414.13;4943052;28;20194;-77
2021/08/02 05:52:48;;;;;;;7.27;2.70;;;;;;;14.86;100.00;100408.47;4943440;29;20204;-78
2021/08/02 05:55:16;;;;;;;6.47;2.50;;;;;;;14.92;100.00;100415.44;4945680;28;20268;-79
2021/08/02 05:57:42;;;;;;;2.97;1.97;;;;;;;14.89;100.00;100413.28;4948068;29;20191;-79
2021/08/02 06:00:08;;;;;;;7.33;2.60;;;;;;;15.12;100.00;100421.25;4962059;28;20692;-79
2021/08/02 06:02:44;;;;;;;6.67;2.20;;;;;;;15.25;100.00;100407.56;4945578;29;20182;-79
2021/08/02 06:05:10;;;;;;;4.63;2.50;;;;;;;15.30;100.00;100410.22;4941962;28;20180;-78
2021/08/02 06:07:41;;;;;;;4.77;2.10;;;;;;;15.14;100.00;100421.81;4947334;29;20539;-78
2021/08/02 06:10:09;;;;;;;9.10;2.40;;;;;;;15.03;100.00;100415.69;4960778;28;20164;-78
2021/08/02 06:12:37;;;;;;;7.87;2.97;;;;;;;15.18;100.00;100428.28;4963530;29;20202;-77
2021/08/02 06:15:03;;;;;;;3.87;2.00;;;;;;;15.30;100.00;100434.84;4941128;29;20188;-77
2021/08/02 06:17:31;;;;;;;10.25;2.38;;;;;;;15.55;100.00;100423.31;4942550;29;20223;-78
2021/08/02 06:19:57;;;;;;;4.75;2.10;;;;;;;15.55;100.00;100423.31;4965676;29;20195;-79
2021/08/02 06:22:23;;;;;;;4.43;2.22;;;;;;;15.73;100.00;100427.78;4963719;29;20234;-78
2021/08/02 06:24:54;;;;;;;5.83;2.10;;;;;;;15.76;100.00;100430.72;4932076;28;20196;-79
2021/08/02 06:27:22;;;;;;;6.72;2.20;;;;;;;15.80;100.00;100434.44;4944008;28;20231;-77
2021/08/02 06:29:53;;;;;;;3.80;2.10;;;;;;;15.79;100.00;100435.56;4962226;29;20254;-78
2021/08/02 06:32:18;;;;;;;4.00;2.30;;;;;;;15.84;100.00;100441.75;4963584;28;20256;-79
2021/08/02 06:34:44;;;;;;;3.35;1.98;;;;;;;15.91;100.00;100435.81;4948756;29;20642;-79
2021/08/02 06:37:13;;;;;;;3.63;2.00;;;;;;;15.83;100.00;100437.38;4943109;29;20249;-81
2021/08/02 06:39:38;;;;;;;4.22;1.90;;;;;;;15.69;100.00;100445.97;4943327;29;20172;-79
2021/08/02 06:42:04;;;;;;;5.47;2.10;;;;;;;16.14;100.00;100440.97;4926700;29;20226;-79
2021/08/02 06:44:32;;;;;;;6.65;2.30;;;;;;;16.26;100.00;100438.47;4954712;29;20707;-79
2021/08/02 06:46:58;;;;;;;7.22;2.20;;;;;;;16.27;100.00;100443.63;4947988;29;20230;-79
2021/08/02 06:49:27;;;;;;;3.97;2.03;;;;;;;16.38;100.00;100433.22;4951083;29;20256;-78
2021/08/02 06:51:55;;;;;;;6.15;1.83;;;;;;;16.50;100.00;100428.78;4940458;29;20693;-78
2021/08/02 06:54:22;;;;;;;6.20;1.70;;;;;;;16.64;100.00;100438.50;4952528;29;20215;-79
2021/08/02 06:56:58;;;;;;;7.07;2.03;;;;;;;16.81;100.00;100435.84;4962173;29;20743;-78
2021/08/02 06:59:32;;;;;;;3.58;1.70;;;;;;;16.56;100.00;100442.00;4937976;29;20187;-78
2021/08/02 07:01:58;;;;;;;3.65;1.83;;;;;;;16.64;100.00;100446.72;4927199;29;20227;-79
2021/08/02 07:04:28;;;;;;;4.43;1.67;;;;;;;17.00;100.00;100448.13;4931453;29;20182;-77
2021/08/02 07:06:53;;;;;;;3.25;1.48;;;;;;;17.33;100.00;100445.81;4946315;29;20227;-79
2021/08/02 07:09:24;;;;;;;5.03;1.48;;;;;;;17.38;100.00;100449.22;4957349;28;20191;-77
2021/08/02 07:11:55;;;;;;;5.03;1.55;;;;;;;17.24;100.00;100445.00;4924458;29;20222;-78
2021/08/02 07:14:23;;;;;;;3.38;1.42;;;;;;;17.19;100.00;100445.13;4964887;29;20234;-78
2021/08/02 07:16:51;;;;;;;4.13;1.80;;;;;;;17.36;100.00;100449.53;4965216;28;20230;-78
2021/08/02 07:19:17;;;;;;;4.97;1.52;;;;;;;17.24;100.00;100464.22;4959560;29;20195;-80
2021/08/02 07:21:45;;;;;;;5.50;1.20;;;;;;;17.41;100.00;100465.03;4944770;29;20227;-79
2021/08/02 07:24:14;;;;;;;3.92;1.40;;;;;;;17.36;100.00;100463.28;4947531;29;20259;-79
2021/08/02 07:26:42;;;;;;;4.57;1.40;;;;;;;17.62;100.00;100466.00;4964940;28;20230;-78
2021/08/02 07:29:08;;;;;;;4.63;1.30;;;;;;;17.53;100.00;100468.78;4959519;29;20214;-79
2021/08/02 07:31:33;;;;;;;4.32;1.92;;;;;;;17.71;100.00;100459.41;4944039;29;20219;-79
2021/08/02 07:33:59;;;;;;;3.60;1.70;;;;;;;17.75;100.00;100463.13;4943870;29;20247;-78
2021/08/02 07:36:27;;;;;;;5.82;1.58;;;;;;;17.33;100.00;100468.59;4961577;29;20743;-79
2021/08/02 07:38:53;;;;;;;4.18;1.27;;;;;;;17.36;100.00;100474.25;4961689;29;20217;-80
2021/08/02 07:41:19;;;;;;;4.38;1.50;;;;;;;16.86;100.00;100467.78;4942400;28;20653;-78
2021/08/02 07:43:47;;;;;;;3.63;1.38;;;;;;;16.83;100.00;100480.22;4942737;29;20211;-78
2021/08/02 07:46:13;;;;;;;5.28;1.50;;;;;;;17.37;100.00;100466.81;4949308;29;20788;-78
2021/08/02 07:48:41;;;;;;;4.05;1.40;;;;;;;17.58;100.00;100476.88;4974493;29;20211;-77
2021/08/02 07:51:09;;;;;;;5.60;1.50;;;;;;;17.54;100.00;100472.31;4974231;28;20214;-77
2021/08/02 07:53:35;;;;;;;5.78;1.40;;;;;;;17.47;100.00;100470.06;4971681;29;20215;-78
2021/08/02 07:56:00;;;;;;;4.72;2.00;;;;;;;17.17;100.00;100475.66;4934329;29;20224;-76
2021/08/02 07:58:28;;;;;;;4.40;2.35;;;;;;;17.43;100.00;100468.28;4930192;29;20211;-77
2021/08/02 08:00:54;;;;;;;2.67;1.30;;;;;;;17.32;100.00;100468.91;4958189;29;20248;-77
2021/08/02 08:03:22;;;;;;;4.90;1.60;;;;;;;17.55;100.00;100472.00;4954396;29;20231;-77
2021/08/02 08:05:48;;;;;;;4.53;1.60;;;;;;;17.69;100.00;100469.94;4957074;29;20243;-78
2021/08/02 08:08:17;;;;;;;6.53;1.95;;;;;;;17.77;100.00;100480.09;4948562;29;20235;-78
2021/08/02 08:10:46;;;;;;;5.35;1.90;;;;;;;17.55;100.00;100472.00;4966633;28;20767;-78
2021/08/02 08:13:14;;;;;;;3.70;1.30;;;;;;;17.78;100.00;100476.19;4960431;29;20298;-78
2021/08/02 08:15:42;;;;;;;3.95;1.48;;;;;;;17.81;100.00;100464.56;4951158;29;20238;-79
2021/08/02 08:18:13;;;;;;;4.45;1.40;;;;;;;17.45;100.00;100461.34;4941667;29;20258;-78
2021/08/02 08:20:38;;;;;;;6.00;1.40;;;;;;;17.71;100.00;100467.66;4950870;29;20231;-78
2021/08/02 08:23:04;;;;;;;2.92;1.10;;;;;;;17.90;100.00;100468.13;4929098;29;20202;-79
2021/08/02 08:25:30;;;;;;;6.03;1.40;;;;;;;18.09;100.00;100474.13;4955478;29;20215;-78
2021/08/02 08:28:00;;;;;;;3.75;1.45;;;;;;;18.04;100.00;100463.25;4926554;29;20195;-78
2021/08/02 08:30:25;;;;;;;6.22;1.70;;;;;;;18.00;100.00;100473.28;4945485;28;20396;-77
2021/08/02 08:32:51;;;;;;;3.10;1.00;;;;;;;18.20;100.00;100463.28;4960252;29;20223;-77
2021/08/02 08:35:16;;;;;;;3.80;1.40;;;;;;;18.39;100.00;100469.22;4957950;29;20203;-77
2021/08/02 08:37:43;;;;;;;3.60;1.70;;;;;;;18.39;100.00;100463.72;4943712;29;20199;-78
2021/08/02 08:40:09;;;;;;;4.57;1.27;;;;;;;18.76;100.00;100471.19;4942384;28;20192;-78
2021/08/02 08:42:34;;;;;;;2.20;1.20;;;;;;;18.67;99.73;100467.66;4978698;28;20194;-79
2021/08/02 08:45:00;;;;;;;5.47;1.40;;;;;;;18.78;100.00;100469.72;4930013;29;20687;-77
2021/08/02 08:47:26;;;;;;;5.10;1.05;;;;;;;18.86;100.00;100460.59;4944201;29;20537;-77
2021/08/02 08:49:54;;;;;;;4.75;1.20;;;;;;;19.13;100.00;100469.25;4957836;28;20187;-77
2021/08/02 08:52:19;;;;;;;3.40;1.10;;;;;;;19.30;100.00;100466.38;4974528;28;20236;-77
2021/08/02 08:54:45;;;;;;;4.35;1.13;;;;;;;19.63;96.43;100470.84;4930430;29;20203;-79
2021/08/02 08:57:14;;;;;;;2.50;1.25;;;;;;;19.28;99.01;100468.66;4913441;29;20231;-78
2021/08/02 08:59:51;;;;;;;4.25;1.05;;;;;;;19.37;97.34;100463.91;4926847;29;20182;-79
2021/08/02 09:02:30;;;;;;;4.15;1.33;;;;;;;19.25;99.44;100469.34;4939865;29;20251;-79
2021/08/02 09:04:58;;;;;;;4.22;1.08;;;;;;;19.08;97.53;100469.44;4960845;29;20205;-78
2021/08/02 09:07:44;;;;;;;2.28;0.85;;;;;;;18.97;98.70;100472.88;4916614;29;20224;-77
2021/08/02 09:10:18;;;;;;;2.83;0.93;;;;;;;19.23;98.54;100471.63;4932747;29;20219;-77
2021/08/02 09:13:06;;;;;;;3.30;1.00;;;;;;;19.70;96.69;100471.13;4966911;29;20218;-77
2021/08/02 09:15:33;;;;;;;4.88;1.35;;;;;;;19.43;93.85;100470.81;4963594;29;20219;-79
2021/08/02 09:17:59;;;;;;;4.85;1.30;;;;;;;19.41;95.72;100471.19;4946640;29;20209;-78
2021/08/02 09:20:32;;;;;;;2.78;1.00;;;;;;;19.41;92.35;100468.44;4933715;29;20291;-78
2021/08/02 09:23:13;;;;;;;4.20;1.25;;;;;;;19.30;89.83;100471.88;4969050;29;20198;-77
2021/08/02 09:25:50;;;;;;;3.33;0.80;;;;;;;19.27;92.02;100471.75;4970469;29;20237;-76
2021/08/02 09:28:17;;;;;;;4.70;1.27;;;;;;;18.92;93.88;100473.88;4951298;29;20236;-78
2021/08/02 09:30:58;;;;;;;3.83;1.83;;;;;;;19.16;94.92;100482.34;4902120;29;20214;-77
2021/08/02 09:33:24;;;;;;;1.92;0.88;;;;;;;19.02;93.28;100481.75;4929196;29;20223;-78
2021/08/02 09:35:55;;;;;;;2.40;1.00;;;;;;;19.17;88.33;100477.66;4921327;29;20231;-77
2021/08/02 09:38:25;;;;;;;3.63;1.05;;;;;;;19.40;85.06;100474.28;4939262;29;20859;-78
2021/08/02 09:40:55;;;;;;;3.70;1.02;;;;;;;19.74;83.04;100478.41;4923033;29;20235;-78
2021/08/02 09:43:25;;;;;;;2.78;0.90;;;;;;;19.53;85.48;100473.19;4940501;29;20716;-77
2021/08/02 09:46:04;;;;;;;1.40;0.80;;;;;;;19.64;85.88;100472.47;4957833;29;20223;-78
2021/08/02 09:48:41;;;;;;;4.38;0.98;;;;;;;19.71;86.17;100473.53;4960758;28;20195;-77
2021/08/02 09:51:14;;;;;;;3.25;1.05;;;;;;;20.10;84.54;100473.06;4930080;29;20233;-77
2021/08/02 09:53:50;;;;;;;2.42;0.80;;;;;;;20.36;85.20;100479.94;4925016;29;20909;-78
2021/08/02 09:56:17;;;;;;;3.45;0.80;;;;;;;20.42;79.00;100473.06;4892194;29;20267;-78
2021/08/02 09:58:46;;;;;;;3.22;0.90;;;;;;;20.59;74.56;100484.72;4907288;29;20271;-78
2021/08/02 10:01:19;;;;;;;2.58;0.90;;;;;;;20.30;78.85;100483.25;4920830;29;20243;-78
2021/08/02 10:03:49;;;;;;;2.45;0.90;;;;;;;19.94;82.41;100485.84;4955869;29;20191;-78
2021/08/02 10:06:15;;;;;;;2.75;0.90;;;;;;;19.84;84.20;100483.50;4922740;29;20226;-80
2021/08/02 10:08:41;;;;;;;6.75;4.45;;;;;;;19.81;79.73;100478.66;4941498;28;20212;-79
2021/08/02 10:11:09;;;;;;;4.97;2.97;;;;;;;19.93;80.70;100487.00;4909861;29;20235;-79
2021/08/02 10:13:37;;;;;;;1.73;0.95;;;;;;;19.84;80.24;100486.28;4952701;29;20243;-79
2021/08/02 10:16:06;;;;;;;2.75;0.90;;;;;;;19.99;80.68;100482.09;4922563;29;20212;-79
2021/08/02 10:18:33;;;;;;;2.25;0.90;;;;;;;19.99;79.00;100484.84;4920104;29;20253;-81
2021/08/02 10:21:06;;;;;;;2.38;0.80;;;;;;;20.45;78.00;100477.88;4924042;29;20245;-79
2021/08/02 10:23:32;;;;;;;1.88;0.82;;;;;;;20.42;78.21;100483.28;4964308;28;20187;-82
2021/08/02 10:25:58;;;;;;;4.28;1.15;;;;;;;20.54;76.08;100479.41;4919447;29;20219;-79
2021/08/02 10:28:23;;;;;;;2.30;1.00;;;;;;;20.80;77.21;100485.47;4917352;29;20208;-78
2021/08/02 10:31:01;;;;;;;2.55;0.85;;;;;;;20.52;72.33;100489.97;4907345;29;20830;-76
2021/08/02 10:33:36;;;;;;;4.03;0.90;;;;;;;20.23;73.74;100485.75;4921721;29;20216;-79
2021/08/02 10:36:20;;;;;;;3.50;1.05;;;;;;;20.38;75.18;100493.41;4923384;29;20887;-79
2021/08/02 10:38:47;;;;;;;1.45;0.77;;;;;;;20.10;76.72;100492.38;4952450;28;20200;-77
2021/08/02 10:41:34;;;;;;;2.30;0.80;;;;;;;19.86;75.46;100492.25;4938349;28;20227;-81
2021/08/02 10:44:11;;;;;;;2.88;0.90;;;;;;;19.89;76.43;100493.53;4909024;29;20288;-78
2021/08/02 10:46:37;;;;;;;2.53;0.95;;;;;;;20.01;76.35;100496.34;4951251;28;20667;-79
2021/08/02 10:49:12;;;;;;;2.83;1.00;;;;;;;19.67;76.53;100488.34;4936389;29;20289;-81
2021/08/02 10:51:51;;;;;;;1.98;0.82;;;;;;;19.65;79.01;100490.63;4923462;29;20242;-80
2021/08/02 10:54:19;;;;;;;3.30;1.10;;;;;;;19.88;79.19;100484.44;4942154;29;20216;-79
2021/08/02 10:56:53;;;;;;;2.60;1.02;;;;;;;20.21;75.47;100477.00;4948555;29;20222;-80
2021/08/02 10:59:19;;;;;;;3.90;1.00;;;;;;;20.46;76.44;100483.06;4947472;29;20262;-76
2021/08/02 11:01:54;;;;;;;11.27;9.07;;;;;;;20.80;74.58;100474.41;4916617;29;20234;-77
2021/08/02 11:04:23;;;;;;;1.52;1.10;;;;;;;21.39;73.93;100473.59;4933686;29;20194;-77
2021/08/02 11:06:51;;;;;;;2.83;1.10;;;;;;;21.43;65.73;100472.59;4916196;28;20735;-79
2021/08/02 11:09:29;;;;;;;2.65;0.90;;;;;;;21.84;67.91;100477.81;4930781;29;20206;-77
2021/08/02 11:12:08;;;;;;;5.50;1.88;;;;;;;21.22;69.59;100471.88;4951963;29;20222;-77
2021/08/02 11:14:50;;;;;;;5.05;1.02;;;;;;;21.86;65.63;100469.97;4936005;29;20207;-75
2021/08/02 11:17:17;;;;;;;2.17;0.90;;;;;;;21.80;63.72;100466.63;4917800;29;20235;-76
2021/08/02 11:19:47;;;;;;;4.93;1.15;;;;;;;21.85;66.32;100468.34;4933625;29;20175;-76
2021/08/02 11:22:13;;;;;;;3.80;1.27;;;;;;;22.25;63.05;100469.94;4924801;29;20277;-77
2021/08/02 11:24:50;;;;;;;3.00;1.00;;;;;;;22.08;58.48;100478.53;4923272;29;20187;-77
2021/08/02 11:27:19;;;;;;;2.95;1.00;;;;;;;21.56;59.82;100471.44;4936764;29;20721;-78
2021/08/02 11:29:49;;;;;;;2.45;0.80;;;;;;;21.42;60.41;100481.25;4935705;29;20191;-78
2021/08/02 11:32:20;;;;;;;2.15;0.98;;;;;;;21.78;58.55;100491.06;4940176;29;20792;-77